createdAt,value
2023-04-21T00:00:51.575Z,6.52
2023-04-21T00:03:53.138Z,6.45
2023-04-21T00:06:55.288Z,6.36
2023-04-21T00:09:56.812Z,6.26
2023-04-21T00:12:58.355Z,6.28
2023-04-21T00:15:59.888Z,6.25
2023-04-21T00:19:02.383Z,6.30
2023-04-21T00:22:04.583Z,6.33
2023-04-21T00:25:06.860Z,6.41
2023-04-21T00:28:08.378Z,6.43
2023-04-21T00:31:12.415Z,6.47
2023-04-21T00:34:13.983Z,6.48
2023-04-21T00:37:15.427Z,6.43
2023-04-21T00:40:17.023Z,6.44
2023-04-21T00:43:18.557Z,6.40
2023-04-21T00:46:20.014Z,6.40
2023-04-21T00:49:24.727Z,6.35
2023-04-21T00:52:27.059Z,6.34
2023-04-21T00:55:31.220Z,6.19
2023-04-21T00:58:33.869Z,6.68
2023-04-21T01:01:36.436Z,6.79
2023-04-21T01:04:40.097Z,6.96
2023-04-21T01:07:41.929Z,7.04
2023-04-21T01:10:43.432Z,7.14
2023-04-21T01:13:44.928Z,7.16
2023-04-21T01:16:46.742Z,7.07
2023-04-21T01:19:49.041Z,7.15
2023-04-21T01:22:51.644Z,7.29
2023-04-21T01:25:53.525Z,7.33
2023-04-21T01:28:56.806Z,7.42
2023-04-21T01:31:58.470Z,7.44
2023-04-21T01:35:00.426Z,7.35
2023-04-21T01:38:02.097Z,7.29
2023-04-21T01:41:03.704Z,7.34
2023-04-21T01:44:05.380Z,7.23
2023-04-21T01:47:07.069Z,7.29
2023-04-21T01:50:08.841Z,7.16
2023-04-21T01:53:10.437Z,7.52
2023-04-21T01:56:14.848Z,7.72
2023-04-21T01:59:16.516Z,7.80
2023-04-21T02:02:18.212Z,7.79
2023-04-21T02:05:19.800Z,7.74
2023-04-21T02:08:21.312Z,7.69
2023-04-21T02:11:25.023Z,7.58
2023-04-21T02:14:26.479Z,7.54
2023-04-21T02:17:28.118Z,7.51
2023-04-21T02:20:32.224Z,7.48
2023-04-21T02:23:33.679Z,7.48
2023-04-21T02:26:35.363Z,7.49
2023-04-21T02:29:36.945Z,7.49
2023-04-21T02:32:38.604Z,7.43
2023-04-21T02:35:40.177Z,7.29
2023-04-21T02:38:41.629Z,7.23
2023-04-21T02:41:44.997Z,7.26
2023-04-21T02:44:46.521Z,7.29
2023-04-21T02:47:48.108Z,7.25
2023-04-21T02:50:50.770Z,7.32
2023-04-21T02:53:52.774Z,7.34
2023-04-21T02:56:54.288Z,7.32
2023-04-21T02:59:55.811Z,7.27
2023-04-21T03:02:57.566Z,7.27
2023-04-21T03:06:03.589Z,7.31
2023-04-21T03:09:05.551Z,7.34
2023-04-21T03:12:07.578Z,7.30
2023-04-21T03:15:11.469Z,7.23
2023-04-21T03:18:13.208Z,7.17
2023-04-21T03:21:14.797Z,7.23
2023-04-21T03:24:16.384Z,7.26
2023-04-21T03:27:17.952Z,7.31
2023-04-21T03:30:19.882Z,7.29
2023-04-21T03:33:21.424Z,7.18
2023-04-21T03:36:23.013Z,7.17
2023-04-21T03:39:24.848Z,7.13
2023-04-21T03:42:27.697Z,7.23
2023-04-21T03:45:31.486Z,7.23
2023-04-21T03:48:34.310Z,7.25
2023-04-21T03:51:35.878Z,7.26
2023-04-21T03:54:37.479Z,7.16
2023-04-21T03:57:40.975Z,7.11
2023-04-21T04:00:42.738Z,7.18
2023-04-21T04:03:44.401Z,7.15
2023-04-21T04:06:45.943Z,7.16
2023-04-21T04:09:47.527Z,7.09
2023-04-21T04:12:49.179Z,7.13
2023-04-21T04:15:50.697Z,7.11
2023-04-21T04:18:52.187Z,7.05
2023-04-21T04:21:53.629Z,7.01
2023-04-21T04:24:55.658Z,6.97
2023-04-21T04:27:57.397Z,6.99
2023-04-21T04:31:00.620Z,7.02
2023-04-21T04:34:02.194Z,7.02
2023-04-21T04:37:04.277Z,7.01
2023-04-21T04:40:06.865Z,6.84
2023-04-21T04:43:10.544Z,6.81
2023-04-21T04:46:12.979Z,7.02
2023-04-21T04:49:15.410Z,7.10
2023-04-21T04:52:16.906Z,7.11
2023-04-21T04:55:18.812Z,7.17
2023-04-21T04:58:20.526Z,7.18
2023-04-21T05:01:22.427Z,7.24
2023-04-21T05:04:24.356Z,7.30
2023-04-21T05:07:26.440Z,7.31
2023-04-21T05:10:27.944Z,7.36
2023-04-21T05:13:29.481Z,7.47
2023-04-21T05:16:30.945Z,7.64
2023-04-21T05:19:35.974Z,7.75
2023-04-21T05:22:38.409Z,7.89
2023-04-21T05:25:40.304Z,7.92
2023-04-21T05:28:41.794Z,7.97
2023-04-21T05:31:43.283Z,8.04
2023-04-21T05:34:44.854Z,8.02
2023-04-21T05:37:46.412Z,8.08
2023-04-21T05:40:56.814Z,8.08
2023-04-21T05:43:58.906Z,8.27
2023-04-21T05:47:00.473Z,8.38
2023-04-21T05:50:01.904Z,8.63
2023-04-21T05:53:03.389Z,8.92
2023-04-21T05:56:05.946Z,9.06
2023-04-21T05:59:07.467Z,9.19
2023-04-21T06:02:09.055Z,9.28
2023-04-21T06:05:10.863Z,9.39
2023-04-21T06:08:12.624Z,9.47
2023-04-21T06:11:14.171Z,9.73
2023-04-21T06:14:15.717Z,9.92
2023-04-21T06:17:17.988Z,10.08
2023-04-21T06:20:22.744Z,10.01
2023-04-21T06:23:24.280Z,10.09
2023-04-21T06:26:25.901Z,10.36
2023-04-21T06:29:27.411Z,10.21
2023-04-21T06:32:28.875Z,10.47
2023-04-21T06:35:30.914Z,9.33
2023-04-21T06:38:32.547Z,9.10
2023-04-21T06:41:34.023Z,9.14
2023-04-21T06:44:35.553Z,9.19
2023-04-21T06:47:37.759Z,9.28
2023-04-21T06:50:39.265Z,9.23
2023-04-21T06:53:40.833Z,9.29
2023-04-21T06:56:42.993Z,9.29
2023-04-21T06:59:45.050Z,9.19
2023-04-21T07:02:46.552Z,9.22
2023-04-21T07:05:48.112Z,9.28
2023-04-21T07:08:49.594Z,9.35
2023-04-21T07:11:51.165Z,9.50
2023-04-21T07:14:52.675Z,9.58
2023-04-21T07:17:54.289Z,9.67
2023-04-21T07:20:55.736Z,9.94
2023-04-21T07:23:58.477Z,10.12
2023-04-21T07:26:59.942Z,10.33
2023-04-21T07:30:01.427Z,10.53
2023-04-21T07:33:03.045Z,10.70
2023-04-21T07:36:04.924Z,10.91
2023-04-21T07:39:06.616Z,10.98
2023-04-21T07:42:08.354Z,11.02
2023-04-21T07:45:10.309Z,11.18
2023-04-21T07:48:11.881Z,11.16
2023-04-21T07:51:13.429Z,11.13
2023-04-21T07:54:14.901Z,11.34
2023-04-21T07:57:16.416Z,11.44
2023-04-21T08:00:18.192Z,11.54
2023-04-21T08:03:21.358Z,11.41
2023-04-21T08:06:24.418Z,11.58
2023-04-21T08:09:26.459Z,11.83
2023-04-21T08:12:27.986Z,11.90
2023-04-21T08:15:29.490Z,12.01
2023-04-21T08:18:31.361Z,12.15
2023-04-21T08:21:33.434Z,12.23
2023-04-21T08:24:34.989Z,12.35
2023-04-21T08:27:40.097Z,12.41
2023-04-21T08:30:42.394Z,12.44
2023-04-21T08:33:58.058Z,12.55
2023-04-21T08:37:03.206Z,12.51
2023-04-21T08:40:06.111Z,12.47
2023-04-21T08:43:08.782Z,12.63
2023-04-21T08:46:12.754Z,12.68
2023-04-21T08:49:19.630Z,13.04
2023-04-21T08:52:21.310Z,13.33
2023-04-21T08:55:31.226Z,13.29
2023-04-21T08:58:32.922Z,13.43
2023-04-21T09:02:17.935Z,13.53
2023-04-21T09:05:27.182Z,13.65
2023-04-21T09:08:30.395Z,13.64
2023-04-21T09:11:34.581Z,13.53
2023-04-21T09:14:36.037Z,13.63
2023-04-21T09:17:38.617Z,13.57
2023-04-21T09:20:40.272Z,13.68
2023-04-21T09:23:48.107Z,14.03
2023-04-21T09:26:53.340Z,14.30
2023-04-21T09:29:55.705Z,14.10
2023-04-21T09:32:58.703Z,14.02
2023-04-21T09:36:00.923Z,14.25
2023-04-21T09:39:28.947Z,14.40
2023-04-21T09:42:30.254Z,14.26
2023-04-21T09:45:39.750Z,14.36
2023-04-21T09:48:44.334Z,14.64
2023-04-21T09:55:01.674Z,14.76
2023-04-21T09:58:07.393Z,14.82
2023-04-21T10:01:09.820Z,15.05
2023-04-21T10:04:12.021Z,15.45
2023-04-21T10:07:13.976Z,15.50
2023-04-21T10:10:35.913Z,15.73
2023-04-21T10:13:37.989Z,15.84
2023-04-21T10:16:39.682Z,15.97
2023-04-21T10:19:52.931Z,16.05
2023-04-21T10:22:58.511Z,16.16
2023-04-21T10:26:22.207Z,16.26
2023-04-21T10:29:32.876Z,16.29
2023-04-21T10:32:43.144Z,16.30
2023-04-21T10:36:01.391Z,16.12
2023-04-21T10:39:04.242Z,16.57
2023-04-21T10:42:20.916Z,16.73
2023-04-21T10:45:25.812Z,16.92
2023-04-21T10:48:27.335Z,17.36
2023-04-21T10:51:32.796Z,17.61
2023-04-21T10:54:42.024Z,17.68
2023-04-21T10:57:45.419Z,17.61
2023-04-21T11:00:47.507Z,17.41
2023-04-21T11:03:49.215Z,17.74
2023-04-21T11:07:32.936Z,17.81
2023-04-21T11:10:48.704Z,20.57
2023-04-21T11:13:53.054Z,20.80
2023-04-21T11:16:54.562Z,21.02
2023-04-21T11:19:56.552Z,20.82
2023-04-21T11:22:58.005Z,21.25
2023-04-21T11:25:59.737Z,21.84
2023-04-21T11:29:02.405Z,21.88
2023-04-21T11:32:06.505Z,21.87
2023-04-21T11:35:08.255Z,21.67
2023-04-21T11:38:10.601Z,21.85
2023-04-21T11:41:12.197Z,21.78
2023-04-21T11:44:30.048Z,21.76
2023-04-21T11:47:31.609Z,21.60
2023-04-21T11:50:33.529Z,21.76
2023-04-21T11:53:35.035Z,22.42
2023-04-21T11:56:41.618Z,22.94
2023-04-21T11:59:45.875Z,22.88
2023-04-21T12:02:55.712Z,23.02
2023-04-21T12:05:58.366Z,23.24
2023-04-21T12:09:02.189Z,21.07
2023-04-21T12:12:05.388Z,20.96
2023-04-21T12:15:08.249Z,21.06
2023-04-21T12:18:14.319Z,21.08
2023-04-21T12:21:16.556Z,21.48
2023-04-21T12:24:18.055Z,21.49
2023-04-21T12:27:20.566Z,21.41
2023-04-21T12:30:22.077Z,21.15
2023-04-21T12:33:23.729Z,20.87
2023-04-21T12:36:27.749Z,20.46
2023-04-21T12:39:30.868Z,20.09
2023-04-21T12:42:33.841Z,19.85
2023-04-21T12:45:36.746Z,19.72
2023-04-21T12:48:38.324Z,19.51
2023-04-21T12:51:39.858Z,20.15
2023-04-21T12:54:41.828Z,20.34
2023-04-21T12:57:43.750Z,20.64
2023-04-21T13:00:45.337Z,20.55
2023-04-21T13:03:47.100Z,20.49
2023-04-21T13:06:48.639Z,20.05
2023-04-21T13:09:50.686Z,19.74
2023-04-21T13:12:52.204Z,19.52
2023-04-21T13:15:54.216Z,19.59
2023-04-21T13:18:55.795Z,20.07
2023-04-21T13:21:57.292Z,20.38
2023-04-21T13:24:58.974Z,20.66
2023-04-21T13:28:00.956Z,20.51
2023-04-21T13:31:02.600Z,20.48
2023-04-21T13:34:04.136Z,20.69
2023-04-21T13:37:06.267Z,21.05
2023-04-21T13:40:10.068Z,21.20
2023-04-21T13:43:12.075Z,21.13
2023-04-21T13:46:14.600Z,21.18
2023-04-21T13:49:16.342Z,21.12
2023-04-21T13:52:17.833Z,21.03
2023-04-21T13:55:20.793Z,20.77
2023-04-21T13:58:22.591Z,20.46
2023-04-21T14:01:24.159Z,20.48
2023-04-21T14:04:26.993Z,20.79
2023-04-21T14:07:28.740Z,20.92
2023-04-21T14:10:31.066Z,20.99
2023-04-21T14:13:37.827Z,21.31
2023-04-21T14:16:43.753Z,22.19
2023-04-21T14:19:45.398Z,22.32
2023-04-21T14:22:46.876Z,22.38
2023-04-21T14:25:48.414Z,22.17
2023-04-21T14:28:50.924Z,21.87
2023-04-21T14:31:53.819Z,21.82
2023-04-21T14:34:58.375Z,21.79
2023-04-21T14:37:59.942Z,21.70
2023-04-21T14:41:01.838Z,21.17
2023-04-21T14:44:03.921Z,20.75
2023-04-21T14:47:09.770Z,20.44
2023-04-21T14:50:12.090Z,19.92
2023-04-21T14:53:13.746Z,19.77
2023-04-21T14:56:15.921Z,19.70
2023-04-21T14:59:17.416Z,20.02
2023-04-21T15:02:20.580Z,20.43
2023-04-21T15:05:22.501Z,20.74
2023-04-21T15:08:24.141Z,20.81
2023-04-21T15:11:25.676Z,20.84
2023-04-21T15:14:27.255Z,20.85
2023-04-21T15:17:28.814Z,20.97
2023-04-21T15:20:41.078Z,20.95
2023-04-21T15:23:45.704Z,21.03
2023-04-21T15:26:47.284Z,21.00
2023-04-21T15:29:49.318Z,20.87
2023-04-21T15:32:50.869Z,20.90
2023-04-21T15:35:52.445Z,21.26
2023-04-21T15:38:53.916Z,21.86
2023-04-21T15:41:55.935Z,21.86
2023-04-21T15:44:57.516Z,21.82
2023-04-21T15:47:59.081Z,21.80
2023-04-21T15:51:02.015Z,21.79
2023-04-21T15:54:04.476Z,21.89
2023-04-21T15:57:06.180Z,22.16
2023-04-21T16:00:10.185Z,22.46
2023-04-21T16:03:12.348Z,22.60
2023-04-21T16:06:13.986Z,22.63
2023-04-21T16:09:17.035Z,22.70
2023-04-21T16:12:18.838Z,22.81
2023-04-21T16:15:24.409Z,22.63
2023-04-21T16:18:26.581Z,22.54
2023-04-21T16:21:28.137Z,22.30
2023-04-21T16:24:29.738Z,21.96
2023-04-21T16:27:31.222Z,21.83
2023-04-21T16:30:35.059Z,21.61
2023-04-21T16:33:36.567Z,21.21
2023-04-21T16:36:38.077Z,20.89
2023-04-21T16:39:39.584Z,20.79
2023-04-21T16:42:41.235Z,20.69
2023-04-21T16:45:43.056Z,20.66
2023-04-21T16:48:44.553Z,20.56
2023-04-21T16:51:46.163Z,20.50
2023-04-21T16:54:47.710Z,20.38
2023-04-21T16:57:49.306Z,20.22
2023-04-21T17:00:51.457Z,20.07
2023-04-21T17:08:14.541Z,19.67
2023-04-21T17:11:16.102Z,19.59
2023-04-21T17:14:17.535Z,19.46
2023-04-21T17:17:19.089Z,19.35
2023-04-21T17:20:20.582Z,19.20
2023-04-21T17:23:22.176Z,19.18
2023-04-21T17:26:23.938Z,19.23
2023-04-21T17:29:27.984Z,19.19
2023-04-21T17:32:31.266Z,19.20
2023-04-21T17:35:34.943Z,19.11
2023-04-21T17:38:36.577Z,19.06
2023-04-21T17:41:38.080Z,19.02
2023-04-21T17:44:41.227Z,18.85
2023-04-21T17:47:43.192Z,18.63
2023-04-21T17:50:44.932Z,18.61
2023-04-21T17:53:46.762Z,18.58
2023-04-21T17:56:48.351Z,18.52
2023-04-21T17:59:49.976Z,18.44
2023-04-21T18:02:51.497Z,18.42
2023-04-21T18:05:53.754Z,18.42
2023-04-21T18:08:55.946Z,18.31
2023-04-21T18:11:58.315Z,18.27
2023-04-21T18:15:00.962Z,18.11
2023-04-21T18:18:02.541Z,17.95
2023-04-21T18:21:04.286Z,17.77
2023-04-21T18:24:06.120Z,17.69
2023-04-21T18:27:07.925Z,17.63
2023-04-21T18:30:09.966Z,17.52
2023-04-21T18:33:11.942Z,17.40
2023-04-21T18:36:13.548Z,17.29
2023-04-21T18:39:15.061Z,17.12
2023-04-21T18:42:16.636Z,16.98
2023-04-21T18:45:18.512Z,16.91
2023-04-21T18:48:20.057Z,16.84
2023-04-21T18:51:21.595Z,16.78
2023-04-21T18:54:23.114Z,16.70
2023-04-21T18:57:25.764Z,16.63
2023-04-21T19:00:27.262Z,16.58
2023-04-21T19:03:29.080Z,16.61
2023-04-21T19:06:30.758Z,16.64
2023-04-21T19:09:32.209Z,16.64
2023-04-21T19:12:34.237Z,16.63
2023-04-21T19:15:35.855Z,16.58
2023-04-21T19:18:37.670Z,16.50
2023-04-21T19:21:39.362Z,16.50
2023-04-21T19:24:40.924Z,16.50
2023-04-21T19:27:42.808Z,16.47
2023-04-21T19:30:44.277Z,16.39
2023-04-21T19:33:46.080Z,16.28
2023-04-21T19:36:49.296Z,16.23
2023-04-21T19:39:50.874Z,16.16
2023-04-21T19:42:52.852Z,16.10
2023-04-21T19:45:54.493Z,16.07
2023-04-21T19:48:56.222Z,16.01
2023-04-21T19:51:57.826Z,16.03
2023-04-21T19:54:59.338Z,16.01
2023-04-21T19:58:00.829Z,15.99
2023-04-21T20:01:02.354Z,16.00
2023-04-21T20:04:04.429Z,16.00
2023-04-21T20:07:06.415Z,15.95
2023-04-21T20:10:08.923Z,15.85
2023-04-21T20:13:13.791Z,15.80
2023-04-21T20:16:17.386Z,15.77
2023-04-21T20:19:22.747Z,15.75
2023-04-21T20:22:25.813Z,15.72
2023-04-21T20:25:28.895Z,15.83
2023-04-21T20:28:30.559Z,15.84
2023-04-21T20:31:33.163Z,15.82
2023-04-21T20:34:36.231Z,15.80
2023-04-21T20:37:38.122Z,15.69
2023-04-21T20:40:39.760Z,15.58
2023-04-21T20:43:41.322Z,15.49
2023-04-21T20:46:43.133Z,15.42
2023-04-21T20:49:44.838Z,15.51
2023-04-21T20:52:46.363Z,15.46
2023-04-21T20:55:48.563Z,15.46
2023-04-21T20:58:50.648Z,15.48
2023-04-21T21:01:52.120Z,15.49
2023-04-21T21:04:53.601Z,15.44
2023-04-21T21:07:56.936Z,15.37
2023-04-21T21:10:58.423Z,15.38
2023-04-21T21:13:59.974Z,15.38
2023-04-21T21:17:02.859Z,15.35
2023-04-21T21:20:05.075Z,15.33
2023-04-21T21:23:07.512Z,15.38
2023-04-21T21:26:09.202Z,15.40
2023-04-21T21:29:10.800Z,15.34
2023-04-21T21:32:12.455Z,15.29
2023-04-21T21:35:13.973Z,15.21
2023-04-21T21:38:15.866Z,15.20
2023-04-21T21:41:19.711Z,15.12
2023-04-21T21:44:21.432Z,15.07
2023-04-21T21:47:23.063Z,15.13
2023-04-21T21:50:24.673Z,15.14
2023-04-21T21:53:26.153Z,15.09
2023-04-21T21:56:27.739Z,15.12
2023-04-21T21:59:29.325Z,15.07
2023-04-21T22:02:31.140Z,15.07
2023-04-21T22:05:32.838Z,14.99
2023-04-21T22:08:34.430Z,14.96
2023-04-21T22:11:37.059Z,14.99
2023-04-21T22:14:38.619Z,15.04
2023-04-21T22:17:40.154Z,14.98
2023-04-21T22:20:41.730Z,14.97
2023-04-21T22:23:43.930Z,14.95
2023-04-21T22:26:45.512Z,14.95
2023-04-21T22:29:46.989Z,14.93
2023-04-21T22:32:48.662Z,14.87
2023-04-21T22:35:50.831Z,14.81
2023-04-21T22:38:52.324Z,14.85
2023-04-21T22:41:53.850Z,14.91
2023-04-21T22:44:55.530Z,14.96
2023-04-21T22:47:57.098Z,15.00
2023-04-21T22:50:59.597Z,15.02
2023-04-21T22:54:01.368Z,15.08
2023-04-21T22:57:02.890Z,15.12
2023-04-21T23:00:06.413Z,15.11
2023-04-21T23:03:08.194Z,15.05
2023-04-21T23:06:09.980Z,15.00
2023-04-21T23:09:11.610Z,14.99
2023-04-21T23:12:13.147Z,14.95
2023-04-21T23:15:14.637Z,14.94
2023-04-21T23:18:16.132Z,14.89
2023-04-21T23:21:17.650Z,14.82
2023-04-21T23:24:19.137Z,14.80
2023-04-21T23:27:20.822Z,14.83
2023-04-21T23:30:22.322Z,14.78
2023-04-21T23:33:23.980Z,14.78
2023-04-21T23:36:27.037Z,14.77
2023-04-21T23:39:28.539Z,14.65
2023-04-21T23:42:30.092Z,14.60
2023-04-21T23:45:31.570Z,14.63
2023-04-21T23:48:34.210Z,14.73
2023-04-21T23:51:36.757Z,14.70
2023-04-21T23:54:38.175Z,14.71
2023-04-21T23:57:39.807Z,14.69
